createdAt,value
2023-03-11T00:04:31.543Z,97054.30
2023-03-11T00:09:35.248Z,97043.77
2023-03-11T00:14:37.827Z,97030.08
2023-03-11T00:19:41.274Z,97033.48
2023-03-11T00:24:44.041Z,97026.92
2023-03-11T00:29:47.662Z,97023.55
2023-03-11T00:34:50.712Z,97021.98
2023-03-11T00:39:53.153Z,97017.89
2023-03-11T00:44:56.229Z,97011.97
2023-03-11T00:49:58.284Z,97006.52
2023-03-11T00:55:01.595Z,96998.18
2023-03-11T01:00:06.656Z,96999.50
2023-03-11T01:05:10.060Z,96993.45
2023-03-11T01:10:13.700Z,96991.36
2023-03-11T01:15:31.982Z,96990.33
2023-03-11T01:20:37.029Z,96992.48
2023-03-11T01:25:41.449Z,96988.39
2023-03-11T01:30:45.059Z,96984.72
2023-03-11T01:35:49.667Z,96989.13
2023-03-11T01:40:53.178Z,96982.48
2023-03-11T01:45:56.285Z,96980.79
2023-03-11T01:51:00.173Z,96976.61
2023-03-11T01:56:05.667Z,96974.38
2023-03-11T02:01:09.013Z,96977.81
2023-03-11T02:06:16.838Z,96974.42
2023-03-11T02:11:25.184Z,96973.52
2023-03-11T02:16:28.655Z,96973.27
2023-03-11T02:21:34.321Z,96970.40
2023-03-11T02:27:00.849Z,96962.41
2023-03-11T02:32:09.067Z,96962.33
2023-03-11T02:37:16.114Z,96963.06
2023-03-11T02:42:25.757Z,96962.08
2023-03-11T02:47:28.943Z,96959.63
2023-03-11T02:52:35.210Z,96959.90
2023-03-11T02:57:39.329Z,96957.00
2023-03-11T03:02:42.552Z,96957.73
2023-03-11T03:07:46.358Z,96959.53
2023-03-11T03:12:48.642Z,96949.23
2023-03-11T03:17:51.762Z,96950.80
2023-03-11T03:22:55.383Z,96947.74
2023-03-11T03:28:01.365Z,96951.69
2023-03-11T03:33:04.754Z,96946.11
2023-03-11T03:38:08.033Z,96946.64
2023-03-11T03:43:10.819Z,96951.45
2023-03-11T03:48:14.436Z,96951.52
2023-03-11T03:53:17.909Z,96948.81
2023-03-11T03:58:22.006Z,96950.66
2023-03-11T04:03:26.839Z,96953.75
2023-03-11T04:08:30.526Z,96955.73
2023-03-11T04:13:33.528Z,96960.61
2023-03-11T04:18:36.939Z,96963.70
2023-03-11T04:23:40.784Z,96964.37
2023-03-11T04:28:42.988Z,96966.61
2023-03-11T04:33:44.914Z,96965.89
2023-03-11T04:38:46.929Z,96968.11
2023-03-11T04:43:49.134Z,96967.75
2023-03-11T04:48:51.754Z,96974.02
2023-03-11T04:53:54.726Z,96983.36
2023-03-11T04:58:57.287Z,96983.16
2023-03-11T05:04:00.226Z,96990.05
2023-03-11T05:09:02.804Z,96994.42
2023-03-11T05:14:05.210Z,97000.11
2023-03-11T05:19:27.269Z,97001.92
2023-03-11T05:24:30.386Z,97006.34
2023-03-11T05:29:32.598Z,97007.05
2023-03-11T05:34:34.522Z,97011.25
2023-03-11T05:39:37.537Z,97019.50
2023-03-11T05:44:39.483Z,97022.05
2023-03-11T05:49:41.822Z,97027.13
2023-03-11T05:54:45.048Z,97029.45
2023-03-11T05:59:48.720Z,97041.50
2023-03-11T06:04:51.463Z,97046.48
2023-03-11T06:09:53.782Z,97052.34
2023-03-11T06:14:55.929Z,97063.61
2023-03-11T06:19:58.299Z,97073.58
2023-03-11T06:25:00.829Z,97079.42
2023-03-11T06:30:04.049Z,97086.30
2023-03-11T06:35:07.343Z,97094.70
2023-03-11T06:40:14.131Z,97104.33
2023-03-11T06:45:20.155Z,97112.23
2023-03-11T06:50:28.132Z,97112.38
2023-03-11T06:55:32.312Z,97128.14
2023-03-11T07:00:35.477Z,97139.78
2023-03-11T07:05:39.120Z,97151.69
2023-03-11T07:10:43.517Z,97162.64
2023-03-11T07:15:47.196Z,97165.30
2023-03-11T07:20:50.706Z,97175.15
2023-03-11T07:25:56.386Z,97183.63
2023-03-11T07:31:00.395Z,97189.31
2023-03-11T07:36:14.083Z,97193.67
2023-03-11T07:41:18.780Z,97196.98
2023-03-11T07:46:24.699Z,97200.09
2023-03-11T07:51:31.006Z,97203.10
2023-03-11T07:56:36.186Z,97220.17
2023-03-11T08:01:42.133Z,97228.35
2023-03-11T08:06:48.366Z,97239.67
2023-03-11T08:11:52.082Z,97246.01
2023-03-11T08:16:56.007Z,97257.68
2023-03-11T08:22:01.690Z,97263.38
2023-03-11T08:27:04.137Z,97271.08
2023-03-11T08:32:08.035Z,97280.21
2023-03-11T08:37:10.427Z,97296.76
2023-03-11T08:42:13.248Z,97309.44
2023-03-11T08:47:15.728Z,97330.67
2023-03-11T08:52:18.807Z,97352.48
2023-03-11T08:57:21.395Z,97369.98
2023-03-11T09:02:27.650Z,97385.90
2023-03-11T09:07:31.616Z,97401.23
2023-03-11T09:12:34.974Z,97415.03
2023-03-11T09:17:36.863Z,97430.45
2023-03-11T09:22:40.018Z,97445.58
2023-03-11T09:27:42.233Z,97457.32
2023-03-11T09:32:44.671Z,97476.47
2023-03-11T09:37:47.373Z,97495.60
2023-03-11T09:43:08.947Z,97514.36
2023-03-11T09:48:23.076Z,97531.30
2023-03-11T09:54:06.291Z,97541.63
2023-03-11T09:59:24.463Z,97561.39
2023-03-11T10:04:50.230Z,97578.36
2023-03-11T10:09:59.072Z,97594.16
2023-03-11T10:15:17.121Z,97610.58
2023-03-11T10:20:56.158Z,97628.51
2023-03-11T10:26:10.212Z,97640.26
2023-03-11T10:31:30.721Z,97652.52
2023-03-11T10:36:52.752Z,97666.04
2023-03-11T10:42:01.708Z,97680.11
2023-03-11T10:47:04.898Z,97697.60
2023-03-11T10:52:08.324Z,97713.33
2023-03-11T10:57:27.508Z,97721.19
2023-03-11T11:02:38.961Z,97743.23
2023-03-11T11:07:44.807Z,97758.98
2023-03-11T11:12:59.414Z,97771.45
2023-03-11T11:18:17.318Z,97800.23
2023-03-11T11:24:08.704Z,97811.55
2023-03-11T11:29:10.899Z,97827.46
2023-03-11T11:34:34.776Z,97837.38
2023-03-11T11:39:51.393Z,97850.98
2023-03-11T11:45:11.123Z,97855.42
2023-03-11T11:50:34.083Z,97872.27
2023-03-11T11:55:44.127Z,97886.68
2023-03-11T12:00:58.156Z,97899.20
2023-03-11T12:06:21.107Z,97918.39
2023-03-11T12:11:37.372Z,97928.82
2023-03-11T12:17:04.756Z,97939.05
2023-03-11T12:23:02.225Z,97949.02
2023-03-11T12:28:20.552Z,97961.89
2023-03-11T12:33:37.386Z,97981.07
2023-03-11T12:38:45.556Z,97992.42
2023-03-11T12:43:48.618Z,98010.73
2023-03-11T12:49:14.342Z,98016.60
2023-03-11T12:54:30.460Z,98028.09
2023-03-11T12:59:41.882Z,98040.15
2023-03-11T13:05:14.142Z,98057.12
2023-03-11T13:10:18.304Z,98078.09
2023-03-11T13:15:21.329Z,98099.75
2023-03-11T13:20:57.787Z,98104.95
2023-03-11T13:26:26.031Z,98121.54
2023-03-11T13:31:30.595Z,98134.70
2023-03-11T13:36:49.667Z,98146.52
2023-03-11T13:41:56.134Z,98154.13
2023-03-11T13:47:07.855Z,98168.59
2023-03-11T13:52:17.110Z,98176.17
2023-03-11T13:57:34.811Z,98191.50
2023-03-11T14:02:36.876Z,98201.91
2023-03-11T14:07:39.398Z,98215.91
2023-03-11T14:12:41.953Z,98232.16
2023-03-11T14:17:46.035Z,98240.33
2023-03-11T14:22:52.863Z,98247.86
2023-03-11T14:28:01.773Z,98263.92
2023-03-11T14:33:18.526Z,98276.46
2023-03-11T14:38:32.372Z,98293.61
2023-03-11T14:43:40.299Z,98292.85
2023-03-11T14:48:43.847Z,98298.64
2023-03-11T14:53:51.722Z,98311.75
2023-03-11T14:59:07.930Z,98327.60
2023-03-11T15:04:31.471Z,98331.77
2023-03-11T15:09:40.655Z,98344.45
2023-03-11T15:14:50.934Z,98366.78
2023-03-11T15:19:53.507Z,98366.34
2023-03-11T15:25:01.086Z,98372.34
2023-03-11T15:30:18.408Z,98380.92
2023-03-11T15:35:27.424Z,98389.36
2023-03-11T15:40:44.609Z,98398.41
2023-03-11T15:45:48.885Z,98400.64
2023-03-11T15:50:55.101Z,98414.55
2023-03-11T15:56:07.896Z,98425.17
2023-03-11T16:01:10.597Z,98437.27
2023-03-11T16:06:13.473Z,98447.65
2023-03-11T16:11:16.085Z,98460.16
2023-03-11T16:16:21.041Z,98476.14
2023-03-11T16:21:31.488Z,98483.16
2023-03-11T16:26:35.609Z,98495.84
2023-03-11T16:31:37.673Z,98512.68
2023-03-11T16:36:40.354Z,98528.19
2023-03-11T16:41:43.965Z,98537.38
2023-03-11T16:46:45.971Z,98545.89
2023-03-11T16:51:48.013Z,98554.14
2023-03-11T16:56:50.534Z,98568.86
2023-03-11T17:01:52.927Z,98581.63
2023-03-11T17:06:57.569Z,98594.47
2023-03-11T17:12:02.409Z,98606.47
2023-03-11T17:17:05.162Z,98618.50
2023-03-11T17:22:09.268Z,98628.02
2023-03-11T17:27:13.147Z,98630.84
2023-03-11T17:32:17.469Z,98639.80
2023-03-11T17:37:20.924Z,98645.64
2023-03-11T17:42:25.037Z,98655.55
2023-03-11T17:47:29.560Z,98663.91
2023-03-11T17:52:32.658Z,98672.59
2023-03-11T17:57:45.156Z,98685.66
2023-03-11T18:02:51.306Z,98700.50
2023-03-11T18:07:56.641Z,98708.85
2023-03-11T18:13:13.183Z,98718.95
2023-03-11T18:18:25.964Z,98731.98
2023-03-11T18:23:46.596Z,98737.91
2023-03-11T18:29:00.819Z,98743.38
2023-03-11T18:34:14.773Z,98751.71
2023-03-11T18:39:20.834Z,98757.36
2023-03-11T18:44:25.093Z,98763.91
2023-03-11T18:49:29.405Z,98772.20
2023-03-11T18:54:34.848Z,98781.84
2023-03-11T18:59:39.501Z,98788.06
2023-03-11T19:04:45.940Z,98793.70
2023-03-11T19:09:49.758Z,98797.61
2023-03-11T19:14:55.320Z,98806.98
2023-03-11T19:20:00.346Z,98812.02
2023-03-11T19:25:10.047Z,98815.45
2023-03-11T19:30:14.945Z,98824.61
2023-03-11T19:35:21.456Z,98830.94
2023-03-11T19:40:30.904Z,98837.84
2023-03-11T19:45:35.367Z,98840.25
2023-03-11T19:50:42.528Z,98847.15
2023-03-11T19:55:48.339Z,98859.58
2023-03-11T20:00:52.582Z,98864.26
2023-03-11T20:06:01.477Z,98868.02
2023-03-11T20:11:08.215Z,98874.33
2023-03-11T20:16:18.482Z,98882.09
2023-03-11T20:21:23.762Z,98890.10
2023-03-11T20:26:28.874Z,98893.18
2023-03-11T20:31:37.846Z,98901.48
2023-03-11T20:36:43.333Z,98900.71
2023-03-11T20:41:49.386Z,98904.36
2023-03-11T20:46:55.684Z,98905.14
2023-03-11T20:52:03.472Z,98910.65
2023-03-11T20:57:10.191Z,98909.36
2023-03-11T21:02:15.949Z,98917.52
2023-03-11T21:07:26.204Z,98919.39
2023-03-11T21:12:31.297Z,98923.38
2023-03-11T21:17:36.680Z,98921.80
2023-03-11T21:22:40.049Z,98925.93
2023-03-11T21:27:44.197Z,98932.80
2023-03-11T21:32:47.902Z,98930.03
2023-03-11T21:37:51.338Z,98935.08
2023-03-11T21:42:55.197Z,98936.76
2023-03-11T21:48:00.091Z,98940.07
2023-03-11T21:53:03.056Z,98942.55
2023-03-11T21:58:07.009Z,98945.86
2023-03-11T22:03:10.214Z,98950.66
2023-03-11T22:08:14.954Z,98951.35
2023-03-11T22:13:18.613Z,98953.45
2023-03-11T22:18:21.604Z,98946.47
2023-03-11T22:23:24.880Z,98950.16
2023-03-11T22:28:28.265Z,98955.41
2023-03-11T22:33:30.738Z,98956.63
2023-03-11T22:38:34.715Z,98955.83
2023-03-11T22:43:38.802Z,98952.71
2023-03-11T22:48:42.631Z,98951.94
2023-03-11T22:53:46.018Z,98955.09
2023-03-11T22:58:49.383Z,98959.86
2023-03-11T23:03:51.721Z,98960.73
2023-03-11T23:08:54.519Z,98963.52
2023-03-11T23:13:57.722Z,98962.08
2023-03-11T23:19:01.316Z,98962.08
2023-03-11T23:24:06.184Z,98958.04
2023-03-11T23:29:09.444Z,98953.50
2023-03-11T23:34:12.515Z,98960.55
2023-03-11T23:39:15.320Z,98962.10
2023-03-11T23:44:17.858Z,98962.98
2023-03-11T23:49:19.958Z,98958.41
2023-03-11T23:54:22.301Z,98951.18
2023-03-11T23:59:25.493Z,98956.11
